Norfolk, Virginia
Traffic Map
Current Weather Conditions
Norfolk, Virginia
Clear
Clear
80°
Feels Like: 83°
Wind Chill: 80° Ceiling: Unl
Heat Index: 83° Visibility: 10mi
Dew Point: 68° Wind: 10mph
Humidity: 67% Direction: 250° (WSW)
Pressure: 29.68in Gusts: 0mph
Raw Report DataKORF 281151Z AUTO 25009KT 10SM CLR 27/20 A2968 RMK AO2 SLP049 T02670200 10272 20256 53011 TSNO
Traffic Incident Summary
Active as of:
Severity:
Category:
InformationThere was an issue retrieving the traffic information for this location. Please try a different location or try again shortly.
Advertisements
Track Severe Weather on mobile